Time;durP1;ratioP1;P1;durP2;ratioP2;P2;SDS_P1;SDS_P2;PMS_P1;PMS_P2;Temp;Humidity;BMP_temperature;BMP_pressure;BME280_temperature;BME280_humidity;BME280_pressure;Samples;Min_cycle;Max_cycle;Signal;HPM_P1;HPM_P2
2024/01/05 00:01:49;;;;;;;14.38;4.28;;;;;;;7.41;100.00;99825.56;5013863;28;20032;-58
2024/01/05 00:04:15;;;;;;;15.70;4.10;;;;;;;7.42;100.00;99835.19;5020751;28;20047;-59
2024/01/05 00:06:40;;;;;;;15.43;4.75;;;;;;;7.44;100.00;99835.91;5017744;28;20438;-59
2024/01/05 00:09:06;;;;;;;18.63;4.43;;;;;;;7.42;100.00;99827.25;5017948;28;20506;-58
2024/01/05 00:11:31;;;;;;;14.10;3.92;;;;;;;7.41;100.00;99826.44;5016592;28;20480;-59
2024/01/05 00:13:57;;;;;;;18.73;4.10;;;;;;;7.42;100.00;99824.63;5016928;28;20064;-59
2024/01/05 00:16:23;;;;;;;19.17;4.30;;;;;;;7.43;100.00;99823.66;5016373;28;20037;-59
2024/01/05 00:18:49;;;;;;;14.65;3.88;;;;;;;7.40;100.00;99822.09;5018713;28;20045;-58
2024/01/05 00:21:25;;;;;;;17.95;4.00;;;;;;;7.45;100.00;99820.91;5015260;28;20068;-58
2024/01/05 00:23:52;;;;;;;13.23;3.92;;;;;;;7.44;100.00;99819.22;5018649;28;20045;-59
2024/01/05 00:26:18;;;;;;;14.90;3.53;;;;;;;7.45;100.00;99813.81;5017876;28;20567;-59
2024/01/05 00:28:45;;;;;;;16.92;4.10;;;;;;;7.47;100.00;99817.16;5018034;28;20036;-58
2024/01/05 00:31:12;;;;;;;15.88;3.78;;;;;;;7.48;100.00;99808.28;5017410;28;20095;-59
2024/01/05 00:33:38;;;;;;;13.80;3.90;;;;;;;7.50;100.00;99803.72;5019327;28;20149;-59
2024/01/05 00:36:07;;;;;;;15.32;3.42;;;;;;;7.52;100.00;99801.78;5019207;28;20500;-58
2024/01/05 00:38:33;;;;;;;20.80;4.60;;;;;;;7.54;100.00;99802.50;5013005;28;20030;-59
2024/01/05 00:40:58;;;;;;;19.17;3.85;;;;;;;7.57;100.00;99801.41;5021603;28;20033;-58
2024/01/05 00:43:23;;;;;;;15.55;3.75;;;;;;;7.59;100.00;99796.84;5017216;28;20087;-59
2024/01/05 00:45:49;;;;;;;19.15;3.58;;;;;;;7.59;100.00;99795.06;5023683;28;20364;-57
2024/01/05 00:48:14;;;;;;;17.15;3.88;;;;;;;7.61;100.00;99792.28;5021222;28;20057;-59
2024/01/05 00:50:39;;;;;;;13.85;3.50;;;;;;;7.63;100.00;99787.72;5022586;28;20078;-57
2024/01/05 00:53:05;;;;;;;14.00;3.53;;;;;;;7.63;100.00;99787.72;5024464;28;20359;-59
2024/01/05 00:55:30;;;;;;;17.50;3.97;;;;;;;7.64;100.00;99788.53;5018117;28;20034;-58
2024/01/05 00:57:56;;;;;;;18.95;3.97;;;;;;;7.67;100.00;99780.38;5022714;28;20073;-58
2024/01/05 01:00:21;;;;;;;15.52;3.25;;;;;;;7.67;100.00;99777.72;5025525;28;20029;-59
2024/01/05 01:02:46;;;;;;;15.18;3.38;;;;;;;7.68;100.00;99774.97;5025838;28;20159;-58
2024/01/05 01:05:11;;;;;;;17.38;3.90;;;;;;;7.69;100.00;99770.50;5023981;28;20072;-58
2024/01/05 01:07:39;;;;;;;17.48;3.80;;;;;;;7.69;100.00;99770.50;5022107;28;20030;-58
2024/01/05 01:10:05;;;;;;;11.48;3.38;;;;;;;7.68;100.00;99767.03;5021531;28;20036;-58
2024/01/05 01:12:30;;;;;;;12.38;3.50;;;;;;;7.71;100.00;99765.91;5019143;28;20030;-58
2024/01/05 01:14:56;;;;;;;14.23;4.25;;;;;;;7.68;100.00;99769.66;5022521;28;20386;-58
2024/01/05 01:17:22;;;;;;;16.20;3.53;;;;;;;7.69;100.00;99762.56;5021940;28;20026;-58
2024/01/05 01:19:48;;;;;;;14.23;4.15;;;;;;;7.69;100.00;99757.28;5022199;28;20033;-59
2024/01/05 01:22:13;;;;;;;12.40;3.33;;;;;;;7.68;100.00;99751.16;5021395;28;20033;-59
2024/01/05 01:24:38;;;;;;;15.68;3.55;;;;;;;7.69;100.00;99747.53;5019727;28;20386;-59
2024/01/05 01:27:03;;;;;;;12.35;3.90;;;;;;;7.70;100.00;99751.88;5024823;28;20034;-58
2024/01/05 01:29:29;;;;;;;14.93;3.33;;;;;;;7.69;100.00;99746.72;5021659;28;20033;-59
2024/01/05 01:31:54;;;;;;;15.32;3.40;;;;;;;7.70;100.00;99737.84;5020897;28;20555;-59
2024/01/05 01:34:19;;;;;;;18.60;3.22;;;;;;;7.70;100.00;99732.53;5020359;28;20033;-59
2024/01/05 01:36:44;;;;;;;17.17;3.78;;;;;;;7.69;100.00;99730.84;5020256;28;20121;-58
2024/01/05 01:39:11;;;;;;;16.48;4.30;;;;;;;7.69;100.00;99728.22;5017139;28;20034;-58
2024/01/05 01:41:36;;;;;;;14.88;3.88;;;;;;;7.69;100.00;99730.84;5016133;28;20053;-59
2024/01/05 01:44:02;;;;;;;19.98;3.97;;;;;;;7.68;100.00;99724.75;5020479;28;20080;-58
2024/01/05 01:46:29;;;;;;;13.02;3.38;;;;;;;7.68;100.00;99710.69;5020459;28;20040;-58
2024/01/05 01:48:55;;;;;;;11.88;3.65;;;;;;;7.66;100.00;99718.75;5019003;28;20535;-59
2024/01/05 01:51:21;;;;;;;13.65;3.55;;;;;;;7.65;100.00;99708.31;5022970;28;20030;-59
2024/01/05 01:53:46;;;;;;;12.88;3.67;;;;;;;7.64;100.00;99710.09;5023477;28;20032;-58
2024/01/05 01:56:13;;;;;;;12.60;3.30;;;;;;;7.66;100.00;99715.25;5018280;28;20117;-58
2024/01/05 01:58:40;;;;;;;21.60;4.00;;;;;;;7.65;100.00;99703.84;5023610;28;20475;-59
2024/01/05 02:01:06;;;;;;;13.50;3.55;;;;;;;7.65;100.00;99701.19;5010516;28;20034;-59
2024/01/05 02:03:32;;;;;;;13.27;3.33;;;;;;;7.64;100.00;99690.75;5020628;28;20069;-59
2024/01/05 02:05:59;;;;;;;14.68;3.65;;;;;;;7.63;100.00;99687.28;5020213;28;20116;-59
2024/01/05 02:08:24;;;;;;;15.75;3.25;;;;;;;7.64;100.00;99674.91;5020520;28;20025;-59
2024/01/05 02:10:49;;;;;;;14.52;3.28;;;;;;;7.62;100.00;99671.56;5021483;28;20053;-59
2024/01/05 02:13:15;;;;;;;16.27;3.25;;;;;;;7.60;100.00;99669.03;5022839;28;20362;-59
2024/01/05 02:15:40;;;;;;;14.00;3.00;;;;;;;7.58;100.00;99666.53;5020892;28;20026;-59
2024/01/05 02:18:13;;;;;;;13.23;3.63;;;;;;;7.56;100.00;99657.91;5019014;28;20072;-59
2024/01/05 02:20:39;;;;;;;12.10;3.10;;;;;;;7.55;100.00;99655.38;5020949;28;20080;-59
2024/01/05 02:23:10;;;;;;;14.07;3.28;;;;;;;7.51;100.00;99652.16;5020808;28;20030;-59
2024/01/05 02:25:35;;;;;;;12.70;3.42;;;;;;;7.50;100.00;99650.47;5021409;28;20532;-59
2024/01/05 02:28:01;;;;;;;11.52;3.17;;;;;;;7.50;100.00;99655.75;5019785;28;20033;-60
2024/01/05 02:30:26;;;;;;;11.35;2.92;;;;;;;7.47;100.00;99648.06;5020815;28;20171;-59
2024/01/05 02:32:51;;;;;;;14.95;3.15;;;;;;;7.46;100.00;99642.91;5017720;28;20021;-59
2024/01/05 02:35:17;;;;;;;10.38;3.30;;;;;;;7.45;100.00;99649.19;5019446;28;20045;-59
2024/01/05 02:37:44;;;;;;;11.65;2.60;;;;;;;7.44;100.00;99639.56;5022637;28;20040;-60
2024/01/05 02:40:11;;;;;;;9.85;2.72;;;;;;;7.41;100.00;99630.94;5018551;28;20036;-60
2024/01/05 02:42:37;;;;;;;10.02;2.80;;;;;;;7.41;100.00;99636.22;5021592;28;20487;-59
2024/01/05 02:45:02;;;;;;;10.88;2.67;;;;;;;7.39;100.00;99635.53;5021288;28;20032;-58
2024/01/05 02:47:28;;;;;;;11.07;3.03;;;;;;;7.40;100.00;99620.50;5016229;28;20069;-59
2024/01/05 02:49:53;;;;;;;12.70;3.22;;;;;;;7.40;100.00;99615.22;5021448;28;20441;-59
2024/01/05 02:52:18;;;;;;;7.45;2.42;;;;;;;7.40;100.00;99617.84;5020075;28;20474;-59
2024/01/05 02:54:44;;;;;;;10.13;2.90;;;;;;;7.39;100.00;99618.81;5016766;28;20034;-59
2024/01/05 02:57:10;;;;;;;13.73;2.90;;;;;;;7.40;100.00;99616.03;5018671;28;20064;-59
2024/01/05 02:59:35;;;;;;;12.70;2.75;;;;;;;7.42;100.00;99610.63;5017279;28;20026;-59
2024/01/05 03:02:01;;;;;;;11.85;2.78;;;;;;;7.43;100.00;99600.91;5017197;28;20026;-59
2024/01/05 03:04:26;;;;;;;13.80;2.63;;;;;;;7.43;100.00;99607.03;5018572;28;20501;-60
2024/01/05 03:06:51;;;;;;;9.80;2.42;;;;;;;7.45;100.00;99602.47;5016736;28;20061;-59
2024/01/05 03:09:16;;;;;;;10.48;2.45;;;;;;;7.45;100.00;99605.09;5017033;28;20030;-60
2024/01/05 03:11:42;;;;;;;7.70;2.78;;;;;;;7.47;100.00;99592.59;5019505;28;20110;-58
2024/01/05 03:14:07;;;;;;;10.32;2.75;;;;;;;7.47;100.00;99582.03;5019815;28;20041;-58
2024/01/05 03:16:33;;;;;;;7.40;2.60;;;;;;;7.47;100.00;99591.75;5022206;28;20402;-59
2024/01/05 03:18:58;;;;;;;5.40;2.22;;;;;;;7.50;100.00;99580.94;5020472;28;20048;-59
2024/01/05 03:21:23;;;;;;;8.02;2.17;;;;;;;7.49;100.00;99576.63;5021389;28;20109;-59
2024/01/05 03:23:48;;;;;;;8.00;2.47;;;;;;;7.49;100.00;99574.81;5018601;28;20037;-59
2024/01/05 03:26:14;;;;;;;7.47;2.15;;;;;;;7.49;100.00;99574.81;5020590;28;20021;-59
2024/01/05 03:28:39;;;;;;;10.98;2.63;;;;;;;7.50;100.00;99575.66;5020985;28;20149;-58
2024/01/05 03:31:04;;;;;;;10.35;2.72;;;;;;;7.52;100.00;99568.44;5015728;28;20075;-59
2024/01/05 03:33:30;;;;;;;9.55;2.47;;;;;;;7.54;100.00;99563.84;5019913;28;20030;-59
2024/01/05 03:35:55;;;;;;;9.07;2.38;;;;;;;7.54;100.00;99564.72;5021027;28;20029;-59
2024/01/05 03:38:20;;;;;;;9.13;2.17;;;;;;;7.55;100.00;99558.44;5021634;28;20017;-58
2024/01/05 03:40:45;;;;;;;6.38;2.20;;;;;;;7.57;100.00;99555.66;5017538;28;20013;-59
2024/01/05 03:43:11;;;;;;;8.50;2.08;;;;;;;7.57;100.00;99550.38;5020342;28;20029;-58
2024/01/05 03:45:36;;;;;;;7.57;2.13;;;;;;;7.57;100.00;99548.56;5020768;28;20030;-58
2024/01/05 03:48:02;;;;;;;6.10;2.25;;;;;;;7.57;100.00;99548.56;5022852;28;20026;-58
2024/01/05 03:50:27;;;;;;;6.68;2.30;;;;;;;7.55;100.00;99542.59;5019790;28;20045;-59
2024/01/05 03:52:52;;;;;;;10.27;2.58;;;;;;;7.55;100.00;99528.53;5021532;28;20037;-59
2024/01/05 03:55:18;;;;;;;6.65;2.17;;;;;;;7.58;100.00;99533.56;5017651;28;20021;-59
2024/01/05 03:57:43;;;;;;;7.68;2.20;;;;;;;7.56;100.00;99527.56;5019904;28;20025;-59
2024/01/05 04:00:09;;;;;;;7.50;1.90;;;;;;;7.54;100.00;99516.28;5017986;28;20033;-60
2024/01/05 04:02:34;;;;;;;6.55;2.20;;;;;;;7.54;100.00;99522.44;5019709;28;20175;-60
2024/01/05 04:05:00;;;;;;;6.65;2.20;;;;;;;7.54;100.00;99511.88;5018454;28;20526;-59
2024/01/05 04:07:25;;;;;;;9.15;2.05;;;;;;;7.57;100.00;99522.16;5014393;28;20033;-58
2024/01/05 04:09:51;;;;;;;10.45;2.20;;;;;;;7.55;100.00;99508.25;5017055;28;20069;-57
2024/01/05 04:12:17;;;;;;;8.15;2.20;;;;;;;7.54;100.00;99505.72;5021863;28;20044;-56
2024/01/05 04:14:44;;;;;;;6.78;1.90;;;;;;;7.51;100.00;99496.28;5019187;28;20398;-58
2024/01/05 04:17:09;;;;;;;7.03;2.20;;;;;;;7.53;100.00;99483.75;5020834;28;20443;-57
2024/01/05 04:19:35;;;;;;;9.60;2.22;;;;;;;7.52;100.00;99487.34;5021252;28;20099;-59
2024/01/05 04:22:00;;;;;;;8.13;1.92;;;;;;;7.52;100.00;99486.53;5019480;28;20026;-59
2024/01/05 04:24:25;;;;;;;6.47;2.00;;;;;;;7.53;100.00;99477.66;5021513;28;20383;-59
2024/01/05 04:26:51;;;;;;;10.43;2.03;;;;;;;7.53;100.00;99482.94;5016016;28;20113;-59
2024/01/05 04:29:16;;;;;;;6.50;1.90;;;;;;;7.53;100.00;99478.47;5016809;28;20507;-58
2024/01/05 04:31:41;;;;;;;6.25;2.35;;;;;;;7.52;100.00;99468.88;5019000;28;20091;-58
2024/01/05 04:34:07;;;;;;;7.43;2.15;;;;;;;7.52;100.00;99463.56;5016751;28;20029;-59
2024/01/05 04:36:32;;;;;;;4.78;2.00;;;;;;;7.51;100.00;99464.56;5018562;28;20058;-59
2024/01/05 04:38:57;;;;;;;7.80;2.47;;;;;;;7.54;100.00;99463.44;5013658;28;20120;-59
2024/01/05 04:41:23;;;;;;;6.70;2.40;;;;;;;7.52;100.00;99460.09;5019921;28;20033;-58
2024/01/05 04:43:50;;;;;;;5.28;1.95;;;;;;;7.51;100.00;99456.63;5018484;28;20088;-59
2024/01/05 04:46:18;;;;;;;7.57;2.20;;;;;;;7.49;100.00;99453.28;5019276;28;20514;-58
2024/01/05 04:48:44;;;;;;;8.57;2.42;;;;;;;7.52;100.00;99441.63;5016797;28;20041;-59
2024/01/05 04:51:09;;;;;;;4.45;1.63;;;;;;;7.49;100.00;99447.16;5019118;28;20100;-59
2024/01/05 04:53:35;;;;;;;8.18;2.03;;;;;;;7.48;100.00;99445.50;5017316;28;20120;-58
2024/01/05 04:56:00;;;;;;;5.78;2.47;;;;;;;7.46;100.00;99435.06;5019090;28;20030;-59
2024/01/05 04:58:25;;;;;;;4.38;2.08;;;;;;;7.46;100.00;99434.22;5019389;28;20441;-59
2024/01/05 05:00:51;;;;;;;5.53;1.63;;;;;;;7.44;100.00;99430.88;5018585;28;20390;-59
2024/01/05 05:03:16;;;;;;;9.82;2.00;;;;;;;7.45;100.00;99427.28;5014576;28;20026;-59
2024/01/05 05:05:42;;;;;;;8.43;2.05;;;;;;;7.45;100.00;99428.09;5017894;28;20045;-59
2024/01/05 05:08:10;;;;;;;8.73;2.28;;;;;;;7.44;100.00;99421.13;5016516;28;20024;-58
2024/01/05 05:10:37;;;;;;;7.30;2.43;;;;;;;7.45;100.00;99414.88;5019984;28;20049;-59
2024/01/05 05:13:03;;;;;;;5.75;2.08;;;;;;;7.43;100.00;99423.91;5021638;28;20057;-58
2024/01/05 05:15:28;;;;;;;4.65;1.83;;;;;;;7.43;100.00;99426.53;5017324;28;20056;-59
2024/01/05 05:17:53;;;;;;;8.18;2.28;;;;;;;7.40;100.00;99425.03;5015614;28;20072;-58
2024/01/05 05:20:18;;;;;;;7.72;1.95;;;;;;;7.39;100.00;99418.06;5019142;28;20033;-59
2024/01/05 05:22:44;;;;;;;5.60;1.95;;;;;;;7.37;100.00;99423.47;5017765;28;20026;-59
2024/01/05 05:25:09;;;;;;;4.78;1.85;;;;;;;7.37;100.00;99423.47;5017108;28;20022;-58
2024/01/05 05:27:34;;;;;;;5.90;1.73;;;;;;;7.36;100.00;99420.94;5020980;28;20029;-58
2024/01/05 05:30:04;;;;;;;8.90;1.92;;;;;;;7.37;100.00;99415.53;5026477;28;20029;-59
2024/01/05 05:32:29;;;;;;;5.03;1.95;;;;;;;7.39;100.00;99412.78;5018748;28;20037;-59
2024/01/05 05:34:55;;;;;;;6.30;2.05;;;;;;;7.40;100.00;99417.09;5021811;28;20372;-59
2024/01/05 05:37:20;;;;;;;5.25;1.63;;;;;;;7.42;100.00;99423.06;5021351;28;20030;-59
2024/01/05 05:39:46;;;;;;;6.53;1.90;;;;;;;7.47;100.00;99414.75;5024387;28;20501;-58
2024/01/05 05:42:11;;;;;;;6.82;1.95;;;;;;;7.49;100.00;99407.53;5018095;28;20044;-58
2024/01/05 05:44:36;;;;;;;4.05;2.10;;;;;;;7.53;100.00;99414.25;5020934;28;20109;-59
2024/01/05 05:47:02;;;;;;;5.28;1.70;;;;;;;7.54;100.00;99421.19;5020046;28;20026;-59
2024/01/05 05:49:27;;;;;;;4.95;1.40;;;;;;;7.55;100.00;99418.41;5021899;28;20434;-59
2024/01/05 05:51:52;;;;;;;4.32;1.40;;;;;;;7.62;100.00;99415.25;5049795;28;20378;-59
2024/01/05 05:54:17;;;;;;;1.27;1.10;;;;;;;7.65;100.00;99410.50;5019979;28;20036;-58
2024/01/05 05:56:43;;;;;;;5.05;1.20;;;;;;;7.65;100.00;99415.81;5016842;28;20475;-59
2024/01/05 05:59:08;;;;;;;2.30;1.10;;;;;;;7.66;100.00;99427.19;5019913;28;20169;-58
2024/01/05 06:01:34;;;;;;;2.65;1.23;;;;;;;7.66;99.46;99409.56;5018247;28;20044;-59
2024/01/05 06:03:59;;;;;;;2.20;0.90;;;;;;;7.69;96.21;99451.53;5016958;28;20041;-59
2024/01/05 06:06:24;;;;;;;1.90;0.80;;;;;;;7.66;94.24;99432.47;5022618;28;20489;-59
2024/01/05 06:08:52;;;;;;;2.45;0.90;;;;;;;7.64;92.31;99442.34;5017525;28;20088;-59
2024/01/05 06:11:18;;;;;;;1.02;0.63;;;;;;;7.56;93.62;99443.88;5018977;28;20483;-59
2024/01/05 06:13:47;;;;;;;2.03;0.70;;;;;;;7.55;91.84;99447.47;5019228;28;20148;-59
2024/01/05 06:16:13;;;;;;;0.60;0.60;;;;;;;7.52;91.10;99442.44;5018621;28;20029;-58
2024/01/05 06:18:39;;;;;;;0.70;0.70;;;;;;;7.48;91.13;99443.69;5021282;28;20170;-59
2024/01/05 06:21:05;;;;;;;0.60;0.60;;;;;;;7.44;92.99;99430.88;5021092;28;20430;-59
2024/01/05 06:23:31;;;;;;;0.93;0.77;;;;;;;7.40;92.60;99444.34;5021151;28;20348;-58
2024/01/05 06:25:56;;;;;;;0.70;0.70;;;;;;;7.39;91.53;99433.91;5018769;28;20498;-58
2024/01/05 06:28:22;;;;;;;0.75;0.65;;;;;;;7.36;92.81;99439.44;5022442;28;20026;-58
2024/01/05 06:30:47;;;;;;;0.50;0.50;;;;;;;7.35;92.38;99445.72;5022158;28;20121;-59
2024/01/05 06:33:12;;;;;;;0.98;0.80;;;;;;;7.33;93.25;99445.84;5023789;28;20418;-59
2024/01/05 06:35:38;;;;;;;0.70;0.70;;;;;;;7.30;92.71;99434.72;5018877;28;20025;-59
2024/01/05 06:38:03;;;;;;;0.77;0.65;;;;;;;7.30;92.26;99443.47;5016754;28;20060;-58
2024/01/05 06:40:28;;;;;;;1.23;0.70;;;;;;;7.30;92.54;99443.47;5021298;28;20024;-58
2024/01/05 06:42:56;;;;;;;1.60;0.60;;;;;;;7.26;94.22;99442.06;5022184;28;20076;-58
2024/01/05 06:45:21;;;;;;;1.40;0.80;;;;;;;7.23;95.31;99448.44;5019107;28;20029;-59
2024/01/05 06:47:46;;;;;;;1.42;0.80;;;;;;;7.24;94.29;99457.19;5021979;28;20029;-59
2024/01/05 06:50:11;;;;;;;1.20;0.82;;;;;;;7.26;94.56;99449.13;5021241;28;20037;-59
2024/01/05 06:52:37;;;;;;;1.23;0.65;;;;;;;7.22;95.68;99438.81;5019467;28;20058;-59
2024/01/05 06:55:03;;;;;;;1.35;0.70;;;;;;;7.21;94.61;99441.59;5020677;28;20116;-57
2024/01/05 06:57:29;;;;;;;0.82;0.70;;;;;;;7.21;94.70;99438.94;5013770;28;20387;-59
2024/01/05 06:59:54;;;;;;;0.65;0.65;;;;;;;7.19;95.35;99449.66;5012858;28;20025;-58
2024/01/05 07:02:19;;;;;;;0.90;0.70;;;;;;;7.18;94.05;99445.34;5019579;28;20448;-57
2024/01/05 07:04:45;;;;;;;1.90;0.60;;;;;;;7.19;94.57;99444.38;5012407;28;20031;-59
2024/01/05 07:07:10;;;;;;;0.70;0.70;;;;;;;7.18;94.45;99439.25;5012660;28;20117;-57
2024/01/05 07:09:36;;;;;;;2.10;0.80;;;;;;;7.20;94.21;99442.56;5012506;28;20038;-58
2024/01/05 07:12:02;;;;;;;0.85;0.82;;;;;;;7.18;94.04;99442.69;5021451;28;20487;-58
2024/01/05 07:14:28;;;;;;;0.65;0.65;;;;;;;7.21;92.83;99439.81;5018076;28;20395;-59
2024/01/05 07:16:56;;;;;;;0.80;0.80;;;;;;;7.23;92.86;99445.78;5013806;28;20038;-59
2024/01/05 07:19:22;;;;;;;0.85;0.73;;;;;;;7.22;93.24;99446.75;5017005;28;20053;-60
2024/01/05 07:21:47;;;;;;;0.70;0.70;;;;;;;7.22;93.29;99445.91;5020312;28;20068;-60
2024/01/05 07:24:15;;;;;;;1.30;0.70;;;;;;;7.21;93.26;99446.88;5018588;28;20026;-60
2024/01/05 07:26:40;;;;;;;3.33;0.80;;;;;;;7.18;93.56;99450.63;5016879;28;20533;-61
2024/01/05 07:29:06;;;;;;;1.58;0.77;;;;;;;7.17;94.39;99445.47;5013299;28;20033;-58
2024/01/05 07:31:31;;;;;;;1.40;0.98;;;;;;;7.17;93.87;99442.84;5019731;28;20014;-59
2024/01/05 07:33:56;;;;;;;0.85;0.60;;;;;;;7.13;95.66;99457.28;5018542;28;20546;-58
2024/01/05 07:36:22;;;;;;;1.02;0.85;;;;;;;7.11;96.02;99461.81;5010136;28;20034;-58
2024/01/05 07:38:48;;;;;;;1.27;0.70;;;;;;;7.07;97.30;99449.88;5018387;28;20025;-59
2024/01/05 07:41:17;;;;;;;5.60;0.82;;;;;;;6.99;99.39;99455.78;5019042;28;20061;-59
2024/01/05 07:43:43;;;;;;;0.57;0.57;;;;;;;6.97;99.44;99461.19;5017352;28;20038;-59
2024/01/05 07:46:08;;;;;;;0.85;0.85;;;;;;;6.84;100.00;99457.88;5014769;28;20033;-59
2024/01/05 07:48:34;;;;;;;0.70;0.70;;;;;;;6.79;100.00;99462.72;5016973;28;20466;-60
2024/01/05 07:51:03;;;;;;;1.08;0.88;;;;;;;6.71;100.00;99467.78;5017363;28;20462;-59
2024/01/05 07:53:28;;;;;;;1.38;1.02;;;;;;;6.63;100.00;99463.16;5012509;28;20451;-60
2024/01/05 07:55:54;;;;;;;1.85;0.68;;;;;;;6.58;100.00;99460.91;5016396;28;20064;-59
2024/01/05 07:58:19;;;;;;;1.30;0.70;;;;;;;6.51;100.00;99462.34;5022077;28;20490;-60
2024/01/05 08:00:45;;;;;;;1.13;0.80;;;;;;;6.42;100.00;99466.56;5019241;28;20064;-59
2024/01/05 08:03:11;;;;;;;2.03;0.73;;;;;;;6.35;100.00;99459.31;5012082;28;20438;-60
2024/01/05 08:05:36;;;;;;;1.00;0.70;;;;;;;6.30;100.00;99462.31;5016618;28;20036;-59
2024/01/05 08:08:02;;;;;;;4.07;0.80;;;;;;;6.25;100.00;99460.03;5014474;28;20022;-59
2024/01/05 08:10:27;;;;;;;1.75;0.80;;;;;;;6.22;100.00;99462.91;5019758;28;20514;-59
2024/01/05 08:12:54;;;;;;;1.33;0.90;;;;;;;6.17;100.00;99445.81;5016114;28;20085;-60
2024/01/05 08:15:19;;;;;;;1.13;0.68;;;;;;;6.18;100.00;99465.91;5021164;28;20037;-59
2024/01/05 08:17:44;;;;;;;1.20;0.75;;;;;;;6.16;100.00;99471.34;5015907;28;20037;-59
2024/01/05 08:20:10;;;;;;;1.95;0.90;;;;;;;6.14;100.00;99467.16;5017887;28;20037;-60
2024/01/05 08:22:36;;;;;;;1.73;0.80;;;;;;;6.10;100.00;99466.56;5012296;28;20025;-60
2024/01/05 08:25:02;;;;;;;0.90;0.90;;;;;;;6.08;100.00;99466.69;5022142;28;20367;-60
2024/01/05 08:27:28;;;;;;;2.67;0.98;;;;;;;6.06;100.00;99475.66;5010363;28;20026;-60
2024/01/05 08:29:53;;;;;;;2.08;0.82;;;;;;;6.01;100.00;99459.38;5012902;28;20049;-61
2024/01/05 08:32:18;;;;;;;3.20;1.30;;;;;;;6.01;100.00;99464.63;5011665;28;20040;-60
2024/01/05 08:34:44;;;;;;;3.30;0.80;;;;;;;5.97;100.00;99476.41;5021705;28;20056;-61
2024/01/05 08:37:09;;;;;;;1.67;1.00;;;;;;;5.97;100.00;99474.59;5016081;28;20414;-61
2024/01/05 08:39:34;;;;;;;1.17;0.98;;;;;;;5.93;100.00;99471.34;5012187;28;20394;-61
2024/01/05 08:42:00;;;;;;;2.72;1.08;;;;;;;5.87;100.00;99484.16;5015927;28;20030;-61
2024/01/05 08:44:25;;;;;;;2.78;0.98;;;;;;;5.84;100.00;99479.13;5014743;28;20033;-61
2024/01/05 08:46:50;;;;;;;1.30;1.10;;;;;;;5.79;100.00;99479.47;5006832;28;20022;-61
2024/01/05 08:49:15;;;;;;;1.48;1.08;;;;;;;5.75;100.00;99486.78;5011310;28;20054;-62
2024/01/05 08:51:42;;;;;;;1.35;1.10;;;;;;;5.70;100.00;99486.31;5013139;28;20026;-61
2024/01/05 08:54:08;;;;;;;1.10;1.00;;;;;;;5.66;100.00;99490.16;5014377;28;20282;-61
2024/01/05 08:56:33;;;;;;;0.85;0.82;;;;;;;5.60;100.00;99490.63;5015474;28;20637;-61
2024/01/05 08:58:59;;;;;;;0.93;0.82;;;;;;;5.53;100.00;99506.06;5018537;28;20124;-61
2024/01/05 09:01:24;;;;;;;0.75;0.75;;;;;;;5.48;100.00;99510.00;5017662;28;20074;-61
2024/01/05 09:03:49;;;;;;;1.02;0.90;;;;;;;5.35;100.00;99508.31;5022214;28;20069;-60
2024/01/05 09:06:15;;;;;;;1.00;0.80;;;;;;;5.34;100.00;99496.09;5019906;28;20025;-61
2024/01/05 09:08:40;;;;;;;0.73;0.70;;;;;;;5.23;100.00;99505.75;5017098;28;20037;-61
2024/01/05 09:11:05;;;;;;;0.70;0.70;;;;;;;5.19;100.00;99507.78;5015295;28;20109;-61
2024/01/05 09:13:31;;;;;;;0.70;0.70;;;;;;;5.14;100.00;99508.13;5022757;28;20022;-61
2024/01/05 09:15:56;;;;;;;1.00;0.88;;;;;;;5.11;100.00;99511.03;5015563;28;20037;-61
2024/01/05 09:18:22;;;;;;;0.90;0.90;;;;;;;5.09;100.00;99505.00;5021069;28;20033;-60
2024/01/05 09:20:47;;;;;;;2.47;1.15;;;;;;;5.08;100.00;99500.72;5016288;28;20053;-60
2024/01/05 09:23:13;;;;;;;1.30;0.90;;;;;;;5.07;100.00;99493.78;5016633;28;20029;-60
2024/01/05 09:25:38;;;;;;;4.25;1.92;;;;;;;5.06;100.00;99510.50;5021250;28;20531;-61
2024/01/05 09:28:06;;;;;;;1.10;1.00;;;;;;;5.05;100.00;99503.59;5021794;28;20514;-60
2024/01/05 09:30:32;;;;;;;1.60;1.10;;;;;;;5.07;100.00;99509.56;5018162;28;20057;-60
2024/01/05 09:32:58;;;;;;;3.60;1.10;;;;;;;5.05;100.00;99519.38;5020187;28;20561;-60
2024/01/05 09:35:24;;;;;;;1.35;1.25;;;;;;;5.05;100.00;99508.03;5022616;28;20051;-60
2024/01/05 09:37:50;;;;;;;1.60;1.15;;;;;;;5.06;100.00;99518.41;5012686;28;20387;-60
2024/01/05 09:40:15;;;;;;;1.10;1.10;;;;;;;5.05;100.00;99514.13;5017515;28;20104;-60
2024/01/05 09:42:49;;;;;;;1.75;1.23;;;;;;;5.06;100.00;99510.50;5012620;28;20105;-60
2024/01/05 09:45:15;;;;;;;1.17;1.10;;;;;;;5.07;100.00;99519.25;5015982;28;20412;-59
2024/01/05 09:47:42;;;;;;;3.72;1.27;;;;;;;5.10;100.00;99532.19;5014907;28;20041;-60
2024/01/05 09:50:12;;;;;;;2.78;1.40;;;;;;;5.12;100.00;99517.94;5017869;28;20052;-60
2024/01/05 09:52:37;;;;;;;1.77;1.20;;;;;;;5.11;100.00;99526.81;5016037;28;20053;-60
2024/01/05 09:55:04;;;;;;;1.83;1.60;;;;;;;5.14;100.00;99525.72;5020518;28;20049;-60
2024/01/05 09:57:30;;;;;;;2.92;1.50;;;;;;;5.13;100.00;99522.28;5019064;28;20032;-60
2024/01/05 09:59:55;;;;;;;1.77;1.40;;;;;;;5.16;100.00;99529.94;5023989;28;20035;-60
2024/01/05 10:02:48;;;;;;;2.72;1.40;;;;;;;5.22;100.00;99540.97;5016356;28;20441;-61
2024/01/05 10:05:13;;;;;;;2.65;1.63;;;;;;;5.24;100.00;99531.97;5017468;28;20417;-60
2024/01/05 10:07:45;;;;;;;1.90;1.65;;;;;;;5.29;100.00;99539.53;5017530;28;20061;-59
2024/01/05 10:10:12;;;;;;;4.82;1.48;;;;;;;5.32;100.00;99534.88;5019827;28;20033;-59
2024/01/05 10:12:40;;;;;;;3.50;1.55;;;;;;;5.33;100.00;99526.03;5015116;28;20030;-60
2024/01/05 10:15:07;;;;;;;1.90;1.80;;;;;;;5.37;100.00;99534.53;5019262;28;20115;-60
2024/01/05 10:17:33;;;;;;;2.15;1.70;;;;;;;5.43;100.00;99533.22;5021829;28;20030;-60
2024/01/05 10:20:16;;;;;;;2.90;1.88;;;;;;;5.45;100.00;99526.06;5015692;28;20091;-60
2024/01/05 10:22:43;;;;;;;2.08;1.48;;;;;;;5.47;100.00;99532.88;5021346;28;20048;-60
2024/01/05 10:25:26;;;;;;;3.15;1.70;;;;;;;5.57;100.00;99527.75;5020607;28;20032;-60
2024/01/05 10:27:51;;;;;;;2.30;1.70;;;;;;;5.57;100.00;99518.03;5019816;28;20530;-59
2024/01/05 10:30:29;;;;;;;3.63;1.42;;;;;;;5.61;100.00;99521.25;5018601;28;20173;-59
2024/01/05 10:33:05;;;;;;;2.67;1.45;;;;;;;5.64;100.00;99520.19;5021327;28;20454;-60
2024/01/05 10:35:31;;;;;;;2.25;1.50;;;;;;;5.65;100.00;99514.00;5014270;28;20125;-60
2024/01/05 10:38:05;;;;;;;3.35;1.70;;;;;;;5.67;100.00;99518.16;5021321;28;20412;-61
2024/01/05 10:40:30;;;;;;;2.60;1.60;;;;;;;5.68;100.00;99533.03;5018492;28;20072;-60
2024/01/05 10:43:09;;;;;;;3.35;1.60;;;;;;;5.70;100.00;99530.28;5021453;28;20022;-60
2024/01/05 10:45:36;;;;;;;2.58;1.60;;;;;;;5.71;100.00;99532.78;5012207;28;20037;-59
2024/01/05 10:48:04;;;;;;;3.63;1.70;;;;;;;5.73;100.00;99527.41;5025360;28;20030;-59
2024/01/05 10:50:32;;;;;;;1.75;1.30;;;;;;;5.74;100.00;99532.56;5021398;28;20053;-60
2024/01/05 10:53:02;;;;;;;2.38;1.42;;;;;;;5.75;100.00;99525.47;5019983;28;20033;-60
2024/01/05 10:55:28;;;;;;;2.50;1.58;;;;;;;5.77;100.00;99531.47;5019881;28;20486;-60
2024/01/05 10:57:54;;;;;;;2.22;1.50;;;;;;;5.80;100.00;99536.50;5020346;28;20085;-60
2024/01/05 11:00:24;;;;;;;1.63;1.25;;;;;;;5.80;100.00;99533.03;5019072;28;20112;-60
2024/01/05 11:02:51;;;;;;;2.95;1.35;;;;;;;5.81;100.00;99518.88;5013126;28;20126;-60
2024/01/05 11:05:16;;;;;;;1.58;1.23;;;;;;;5.81;100.00;99527.66;5021807;28;20021;-60
2024/01/05 11:07:42;;;;;;;1.88;1.45;;;;;;;5.81;100.00;99537.31;5013021;28;20088;-60
2024/01/05 11:10:19;;;;;;;1.88;1.23;;;;;;;5.82;100.00;99534.56;5022787;28;20037;-60
2024/01/05 11:13:16;;;;;;;2.67;1.27;;;;;;;5.85;100.00;99539.63;5013345;28;20038;-61
2024/01/05 11:16:02;;;;;;;3.53;1.60;;;;;;;5.83;100.00;99536.28;5018512;28;20045;-61
2024/01/05 11:18:48;;;;;;;1.75;1.63;;;;;;;5.83;100.00;99541.53;5019459;28;20037;-59
2024/01/05 11:21:19;;;;;;;2.28;1.40;;;;;;;5.83;100.00;99538.03;5013397;28;20088;-61
2024/01/05 11:23:46;;;;;;;2.55;1.65;;;;;;;5.80;100.00;99533.88;5017478;28;20041;-60
2024/01/05 11:26:30;;;;;;;1.55;1.45;;;;;;;5.84;100.00;99545.00;5016650;28;20040;-60
2024/01/05 11:28:55;;;;;;;4.25;1.80;;;;;;;5.83;100.00;99527.50;5015926;28;20131;-59